Time;durP1;ratioP1;P1;durP2;ratioP2;P2;SDS_P1;SDS_P2;PMS_P1;PMS_P2;Temp;Humidity;BMP_temperature;BMP_pressure;BME280_temperature;BME280_humidity;BME280_pressure;Samples;Min_cycle;Max_cycle;Signal;HPM_P1;HPM_P2
2022/05/05 00:01:45;;;;;;;6.12;4.00;;;10.10;58.80;;;;;;2627021;52;21047;-76
2022/05/05 00:04:13;;;;;;;8.43;3.95;;;10.10;58.80;;;;;;2374062;56;21035;-75
2022/05/05 00:06:40;;;;;;;8.32;4.15;;;10.10;58.80;;;;;;2373009;56;21051;-76
2022/05/05 00:09:07;;;;;;;6.07;3.58;;;10.10;58.80;;;;;;2373875;56;21059;-75
2022/05/05 00:14:28;;;;;;;6.93;4.27;;;10.00;59.00;;;;;;2332341;56;21600;-75
2022/05/05 00:16:58;;;;;;;7.25;3.50;;;9.90;58.90;;;;;;2373413;56;21338;-76
2022/05/05 00:19:26;;;;;;;6.85;3.97;;;9.90;58.80;;;;;;2374160;56;21117;-75
2022/05/05 00:21:53;;;;;;;5.20;3.53;;;9.90;58.80;;;;;;2374149;56;21039;-76
2022/05/05 00:24:21;;;;;;;7.07;4.18;;;9.90;58.90;;;;;;2373387;56;21131;-76
2022/05/05 00:26:48;;;;;;;8.85;4.32;;;9.80;58.90;;;;;;2373798;56;21027;-75
2022/05/05 00:29:16;;;;;;;6.87;3.58;;;9.80;58.80;;;;;;2374093;56;21050;-75
2022/05/05 00:31:44;;;;;;;9.40;4.50;;;9.80;58.90;;;;;;2374034;56;21130;-76
2022/05/05 00:34:11;;;;;;;9.68;4.90;;;9.80;59.00;;;;;;2627373;52;21636;-77
2022/05/05 00:36:39;;;;;;;8.27;4.90;;;9.80;58.90;;;;;;2373584;56;21029;-76
2022/05/05 00:39:07;;;;;;;7.03;4.35;;;9.70;58.80;;;;;;2373472;56;21055;-76
2022/05/05 00:41:35;;;;;;;6.25;3.87;;;9.70;58.80;;;;;;2373108;56;21058;-76
2022/05/05 00:44:04;;;;;;;6.95;4.18;;;9.70;59.00;;;;;;2372715;56;21545;-75
2022/05/05 00:46:32;;;;;;;8.13;4.37;;;9.60;59.00;;;;;;2373578;56;21118;-75
2022/05/05 00:49:00;;;;;;;5.25;4.25;;;9.60;59.20;;;;;;2374046;56;21031;-74
2022/05/05 00:51:27;;;;;;;6.97;4.15;;;9.60;60.00;;;;;;2374078;56;21023;-75
2022/05/05 00:53:55;;;;;;;8.55;4.95;;;9.60;59.40;;;;;;2374242;56;21108;-76
2022/05/05 00:56:24;;;;;;;6.37;4.30;;;9.50;59.30;;;;;;2373183;56;21118;-75
2022/05/05 00:58:53;;;;;;;6.05;4.30;;;9.50;59.40;;;;;;2374278;56;21063;-76
2022/05/05 01:01:22;;;;;;;8.48;4.75;;;9.40;59.40;;;;;;2373690;56;21059;-76
2022/05/05 01:03:50;;;;;;;9.77;4.45;;;9.40;59.50;;;;;;2373988;56;21127;-75
2022/05/05 01:06:17;;;;;;;7.18;4.68;;;9.40;59.70;;;;;;2373433;56;21062;-76
2022/05/05 01:08:46;;;;;;;7.90;4.65;;;9.40;59.50;;;;;;2627425;52;21031;-75
2022/05/05 01:11:14;;;;;;;7.47;5.07;;;9.40;59.40;;;;;;2374050;56;21051;-76
2022/05/05 01:13:42;;;;;;;6.07;4.47;;;9.40;59.50;;;;;;2373091;56;21023;-75
2022/05/05 01:16:10;;;;;;;5.93;4.78;;;9.30;59.60;;;;;;2373219;56;21125;-75
2022/05/05 01:18:38;;;;;;;7.30;4.50;;;9.30;59.60;;;;;;2373730;56;21143;-76
2022/05/05 01:21:08;;;;;;;6.25;4.15;;;9.30;59.60;;;;;;2373692;56;21046;-75
2022/05/05 01:23:36;;;;;;;9.38;4.55;;;9.20;59.60;;;;;;2373685;56;21170;-76
2022/05/05 01:28:49;;;;;;;7.40;4.70;;;9.20;59.60;;;;;;2372960;56;21136;-76
2022/05/05 01:31:16;;;;;;;8.43;5.28;;;9.20;59.30;;;;;;2373385;56;21152;-75
2022/05/05 01:33:43;;;;;;;7.93;4.78;;;9.10;59.40;;;;;;2626993;52;21114;-75
2022/05/05 01:36:11;;;;;;;9.00;5.43;;;9.10;59.60;;;;;;2626423;52;21621;-76
2022/05/05 01:38:41;;;;;;;8.55;5.43;;;9.10;59.70;;;;;;2626814;52;21047;-75
2022/05/05 01:41:10;;;;;;;7.45;4.85;;;9.00;59.60;;;;;;2626229;52;21038;-75
2022/05/05 01:43:39;;;;;;;10.82;5.12;;;9.00;59.50;;;;;;2373334;56;21055;-76
2022/05/05 01:46:06;;;;;;;7.53;5.47;;;9.00;59.50;;;;;;2373042;56;21114;-75
2022/05/05 01:48:34;;;;;;;12.52;5.00;;;9.00;59.30;;;;;;2373747;56;21099;-76
2022/05/05 01:51:02;;;;;;;7.25;5.12;;;9.00;59.20;;;;;;2373749;56;21048;-76
2022/05/05 01:53:36;;;;;;;7.47;4.97;;;8.90;59.30;;;;;;2374211;56;21027;-77
2022/05/05 01:56:05;;;;;;;;;;;8.90;59.40;;;;;;2631089;52;21039;-75
2022/05/05 02:01:09;;;;;;;10.82;4.55;;;8.90;59.10;;;;;;2355088;57;22057;-76
2022/05/05 02:03:37;;;;;;;13.40;6.68;;;8.80;59.40;;;;;;2347259;57;21101;-74
2022/05/05 02:06:05;;;;;;;8.23;5.28;;;8.80;59.60;;;;;;2348202;56;21053;-75
2022/05/05 02:08:32;;;;;;;6.68;5.32;;;8.70;59.50;;;;;;2375080;56;21054;-75
2022/05/05 02:11:00;;;;;;;10.75;5.12;;;8.70;59.60;;;;;;2374738;56;21106;-75
2022/05/05 02:13:27;;;;;;;12.60;5.62;;;8.70;59.80;;;;;;2628765;52;21127;-75
2022/05/05 02:15:54;;;;;;;9.30;6.43;;;8.60;59.70;;;;;;2373632;56;21059;-77
2022/05/05 02:18:21;;;;;;;8.77;5.32;;;8.60;59.70;;;;;;2627402;52;21133;-75
2022/05/05 02:20:49;;;;;;;6.57;4.80;;;8.60;59.70;;;;;;2628533;52;21031;-75
2022/05/05 02:23:16;;;;;;;7.00;4.37;;;8.60;59.80;;;;;;2627256;52;21102;-75
2022/05/05 02:25:43;;;;;;;9.85;4.78;;;8.50;59.90;;;;;;2374572;56;21046;-75
2022/05/05 02:28:11;;;;;;;8.40;5.20;;;8.50;60.00;;;;;;2374735;56;21093;-75
2022/05/05 02:30:38;;;;;;;6.45;5.20;;;8.50;59.90;;;;;;2374868;56;21046;-75
2022/05/05 02:33:05;;;;;;;10.45;5.40;;;8.50;60.10;;;;;;2375516;56;21027;-75
2022/05/05 02:35:33;;;;;;;9.75;5.22;;;8.50;60.00;;;;;;2628196;52;21103;-76
2022/05/05 02:40:46;;;;;;;9.38;5.10;;;8.40;59.80;;;;;;2374741;56;21035;-76
2022/05/05 02:43:13;;;;;;;9.43;5.37;;;8.40;59.70;;;;;;2374851;56;21114;-76
2022/05/05 02:45:41;;;;;;;9.02;5.05;;;8.30;59.60;;;;;;2628395;52;21051;-75
2022/05/05 02:48:09;;;;;;;8.55;5.87;;;8.30;59.70;;;;;;2375198;56;21094;-75
2022/05/05 02:50:36;;;;;;;7.87;6.35;;;8.30;59.60;;;;;;2375502;56;21518;-75
2022/05/05 02:54:47;;;;;;;14.95;9.48;;;8.30;59.60;;;;;;2628076;52;21058;-75
2022/05/05 02:57:14;;;;;;;14.18;8.02;;;8.30;59.60;;;;;;2374791;56;21050;-75
2022/05/05 02:59:42;;;;;;;13.98;8.13;;;8.30;59.40;;;;;;2374782;56;21106;-75
2022/05/05 03:02:09;;;;;;;11.07;7.18;;;8.20;59.50;;;;;;2375136;56;21054;-75
2022/05/05 03:04:36;;;;;;;9.35;6.57;;;8.20;59.70;;;;;;2374737;56;21059;-76
2022/05/05 03:07:04;;;;;;;14.02;6.97;;;8.20;59.90;;;;;;2374839;56;21094;-75
2022/05/05 03:09:32;;;;;;;9.77;6.15;;;8.10;60.30;;;;;;2374905;56;21043;-75
2022/05/05 03:11:59;;;;;;;9.13;7.12;;;8.10;60.70;;;;;;2374184;56;21565;-78
2022/05/05 03:14:26;;;;;;;9.60;7.18;;;8.10;60.70;;;;;;2627028;52;21035;-75
2022/05/05 03:16:54;;;;;;;9.95;5.85;;;8.00;60.50;;;;;;2373570;56;21546;-77
2022/05/05 03:19:21;;;;;;;9.98;6.37;;;8.00;60.60;;;;;;2373942;56;21047;-77
2022/05/05 03:21:48;;;;;;;9.50;6.30;;;8.00;60.50;;;;;;2374244;56;21089;-77
2022/05/05 03:24:16;;;;;;;7.18;5.93;;;8.00;60.40;;;;;;2374043;56;21170;-77
2022/05/05 03:26:43;;;;;;;9.45;5.53;;;8.00;60.50;;;;;;2372941;56;21118;-77
2022/05/05 03:29:10;;;;;;;10.13;6.72;;;7.90;60.40;;;;;;2373700;56;21205;-77
2022/05/05 03:31:37;;;;;;;9.23;6.03;;;7.90;60.50;;;;;;2627553;52;21088;-77
2022/05/05 03:34:05;;;;;;;9.43;6.78;;;7.90;60.60;;;;;;2627216;52;21031;-76
2022/05/05 03:36:33;;;;;;;8.75;6.30;;;7.80;60.70;;;;;;2373685;56;21114;-77
2022/05/05 03:39:00;;;;;;;7.20;6.35;;;7.80;60.80;;;;;;2374021;56;21043;-77
2022/05/05 03:41:27;;;;;;;8.30;5.43;;;7.80;60.80;;;;;;2374316;56;21095;-76
2022/05/05 03:43:55;;;;;;;9.77;6.12;;;7.80;60.80;;;;;;2626237;52;21165;-76
2022/05/05 03:46:22;;;;;;;9.57;6.47;;;7.80;60.80;;;;;;2626695;52;21057;-75
2022/05/05 03:48:50;;;;;;;7.95;5.43;;;7.80;60.90;;;;;;2372952;56;21066;-76
2022/05/05 03:51:17;;;;;;;6.78;5.75;;;7.80;60.90;;;;;;2373905;56;21160;-76
2022/05/05 03:53:44;;;;;;;7.45;6.30;;;7.80;61.00;;;;;;2373857;56;21787;-75
2022/05/05 03:56:11;;;;;;;9.55;6.28;;;7.80;61.30;;;;;;2373416;56;21149;-76
2022/05/05 03:58:39;;;;;;;8.60;6.22;;;7.80;61.30;;;;;;2626721;52;21035;-75
2022/05/05 04:01:06;;;;;;;11.25;6.87;;;7.70;61.20;;;;;;2373175;56;21126;-76
2022/05/05 04:03:36;;;;;;;10.00;7.12;;;7.70;61.20;;;;;;2371979;56;21556;-76
2022/05/05 04:06:05;;;;;;;7.87;5.65;;;7.80;61.30;;;;;;2373309;56;21119;-74
2022/05/05 04:08:33;;;;;;;9.55;5.95;;;7.80;61.20;;;;;;2373709;56;21031;-76
2022/05/05 04:11:01;;;;;;;8.80;6.05;;;7.80;62.00;;;;;;2626033;52;21054;-76
2022/05/05 04:13:29;;;;;;;10.52;6.85;;;7.80;61.50;;;;;;2373237;56;21050;-75
2022/05/05 04:15:56;;;;;;;10.18;7.18;;;7.80;61.70;;;;;;2372165;56;21019;-75
2022/05/05 04:18:23;;;;;;;15.93;8.18;;;7.70;61.80;;;;;;2373303;56;21105;-75
2022/05/05 04:20:50;;;;;;;12.30;8.07;;;7.80;61.80;;;;;;2373558;56;21540;-75
2022/05/05 04:23:18;;;;;;;12.55;7.68;;;7.80;61.90;;;;;;2373163;56;21047;-75
2022/05/05 04:25:46;;;;;;;11.30;8.05;;;7.80;62.10;;;;;;2373332;56;21102;-75
2022/05/05 04:28:14;;;;;;;11.88;8.07;;;7.80;62.00;;;;;;2373108;56;21103;-75
2022/05/05 04:30:42;;;;;;;10.32;7.10;;;7.80;62.40;;;;;;2372135;56;21115;-76
2022/05/05 04:33:09;;;;;;;9.90;7.57;;;7.80;62.20;;;;;;2372878;56;21035;-75
2022/05/05 04:35:38;;;;;;;14.60;8.23;;;7.90;62.30;;;;;;2370973;56;21102;-76
2022/05/05 04:38:05;;;;;;;10.60;7.22;;;7.90;62.30;;;;;;2449463;52;21098;-75
2022/05/05 04:40:33;;;;;;;11.05;7.87;;;7.90;62.70;;;;;;2383264;56;21019;-76
2022/05/05 04:43:00;;;;;;;10.52;7.72;;;7.90;63.10;;;;;;2384299;56;21676;-75
2022/05/05 04:45:27;;;;;;;13.98;8.88;;;7.90;63.50;;;;;;2384486;56;21074;-76
2022/05/05 04:47:55;;;;;;;15.10;8.90;;;8.00;64.00;;;;;;2362301;56;21028;-76
2022/05/05 04:50:23;;;;;;;11.00;7.78;;;8.00;64.20;;;;;;2357146;57;21048;-75
2022/05/05 04:52:50;;;;;;;11.35;8.35;;;8.00;64.50;;;;;;2356530;57;21095;-75
2022/05/05 04:55:18;;;;;;;11.82;8.98;;;8.10;64.60;;;;;;2357235;57;21523;-75
2022/05/05 04:57:45;;;;;;;13.25;8.65;;;8.10;64.70;;;;;;2357447;57;21072;-76
2022/05/05 05:00:14;;;;;;;14.65;9.25;;;8.10;64.50;;;;;;2356781;57;21108;-75
2022/05/05 05:02:41;;;;;;;19.15;11.07;;;8.20;64.60;;;;;;2357444;57;21533;-75
2022/05/05 05:05:10;;;;;;;15.35;9.60;;;8.30;64.80;;;;;;2355901;57;21593;-76
2022/05/05 05:07:37;;;;;;;20.70;9.13;;;8.30;64.90;;;;;;2357157;57;21092;-76
2022/05/05 05:10:06;;;;;;;13.30;8.82;;;8.30;64.90;;;;;;2356073;57;21052;-75
2022/05/05 05:12:34;;;;;;;14.02;10.25;;;8.40;65.20;;;;;;2356306;57;21052;-75
2022/05/05 05:15:01;;;;;;;16.52;8.23;;;8.40;65.30;;;;;;2354882;57;21044;-75
2022/05/05 05:20:07;;;;;;;18.40;7.78;;;8.50;64.10;;;;;;2354574;57;22161;-75
2022/05/05 05:22:34;;;;;;;12.48;7.78;;;8.60;64.40;;;;;;2593499;53;21062;-77
2022/05/05 05:25:01;;;;;;;14.70;7.72;;;8.60;64.80;;;;;;2345915;57;21109;-77
2022/05/05 05:27:29;;;;;;;15.85;6.72;;;8.60;65.10;;;;;;2362920;56;21051;-76
2022/05/05 05:29:57;;;;;;;13.25;8.40;;;8.60;65.50;;;;;;2374214;56;21138;-76
2022/05/05 05:32:24;;;;;;;12.00;7.22;;;8.70;65.60;;;;;;2374854;56;21047;-76
2022/05/05 05:34:51;;;;;;;15.25;8.43;;;8.70;65.70;;;;;;2628939;52;21051;-77
2022/05/05 05:37:18;;;;;;;9.07;6.32;;;8.70;65.70;;;;;;2375075;56;21094;-76
2022/05/05 05:39:46;;;;;;;10.52;6.18;;;8.80;65.80;;;;;;2374953;56;21066;-76
2022/05/05 05:42:13;;;;;;;10.15;6.30;;;8.90;65.90;;;;;;2374715;56;21030;-76
2022/05/05 05:44:40;;;;;;;10.85;6.32;;;8.90;66.10;;;;;;2375178;56;21055;-75
2022/05/05 05:47:10;;;;;;;11.60;5.82;;;8.90;66.10;;;;;;2626819;52;21569;-74
2022/05/05 05:49:37;;;;;;;11.27;6.28;;;9.00;65.60;;;;;;2374971;56;21530;-75
2022/05/05 05:52:06;;;;;;;11.98;6.95;;;9.00;65.90;;;;;;2374933;56;21043;-75
2022/05/05 05:54:33;;;;;;;11.60;6.05;;;9.00;66.10;;;;;;2375096;56;21089;-75
2022/05/05 05:57:00;;;;;;;7.78;5.18;;;9.10;65.30;;;;;;2627440;52;21054;-75
2022/05/05 05:59:27;;;;;;;10.75;5.32;;;9.10;65.40;;;;;;2374633;56;21054;-75
2022/05/05 06:04:40;;;;;;;11.65;4.62;;;9.20;65.60;;;;;;2374005;56;20995;-75
2022/05/05 06:07:07;;;;;;;10.55;4.97;;;9.20;65.40;;;;;;2374604;56;21042;-75
2022/05/05 06:09:35;;;;;;;17.45;5.78;;;9.20;65.50;;;;;;2374938;56;21109;-75
2022/05/05 06:12:03;;;;;;;11.38;5.12;;;9.30;65.60;;;;;;2373037;56;21648;-75
2022/05/05 06:14:30;;;;;;;36.55;6.30;;;9.30;65.60;;;;;;2374136;56;21125;-75
2022/05/05 06:16:58;;;;;;;11.00;4.72;;;9.40;65.50;;;;;;2373947;56;21150;-74
2022/05/05 06:19:25;;;;;;;9.55;3.92;;;9.40;65.50;;;;;;2374858;56;21123;-75
2022/05/05 06:21:52;;;;;;;8.85;3.72;;;9.40;65.80;;;;;;2375268;56;21134;-76
2022/05/05 06:24:19;;;;;;;9.07;3.53;;;9.50;65.70;;;;;;2375148;56;21834;-75
2022/05/05 06:26:47;;;;;;;8.18;3.50;;;9.50;65.70;;;;;;2374813;56;21109;-76
2022/05/05 06:29:14;;;;;;;8.38;2.87;;;9.60;65.60;;;;;;2374874;56;21039;-75
2022/05/05 06:31:42;;;;;;;8.63;4.43;;;9.70;64.20;;;;;;2627071;52;21031;-74
2022/05/05 06:36:44;;;;;;;8.05;4.07;;;9.80;64.90;;;;;;2326909;57;28417;-74
2022/05/05 06:39:12;;;;;;;10.00;3.60;;;9.80;66.40;;;;;;2347259;57;21109;-77
2022/05/05 06:41:39;;;;;;;7.87;3.28;;;9.90;65.70;;;;;;2347742;57;21165;-76
2022/05/05 06:44:06;;;;;;;9.63;3.37;;;10.10;65.20;;;;;;2348070;57;21528;-75
2022/05/05 06:46:34;;;;;;;8.45;3.33;;;10.20;64.90;;;;;;2594675;52;21117;-77
2022/05/05 06:49:01;;;;;;;5.72;3.35;;;10.20;65.10;;;;;;2347785;57;21528;-76
2022/05/05 06:51:28;;;;;;;9.88;3.40;;;10.30;65.20;;;;;;2346902;57;21570;-76
2022/05/05 06:53:56;;;;;;;11.50;3.25;;;10.30;64.90;;;;;;2347450;57;21037;-76
2022/05/05 06:56:24;;;;;;;10.45;3.47;;;10.30;65.00;;;;;;2347611;57;21054;-74
2022/05/05 06:58:51;;;;;;;15.80;3.40;;;10.30;65.10;;;;;;2347922;57;21097;-77
2022/05/05 07:06:49;;;;;;;7.07;3.20;;;10.50;63.90;;;;;;2347252;57;21568;-75
2022/05/05 07:12:02;;;;;;;6.28;2.92;;;10.50;64.50;;;;;;2347624;57;20997;-74
2022/05/05 07:14:31;;;;;;;10.32;4.00;;;10.60;64.40;;;;;;2347859;57;21097;-76
2022/05/05 07:16:58;;;;;;;4.37;3.10;;;10.60;64.40;;;;;;2346850;57;21049;-76
2022/05/05 07:19:25;;;;;;;6.70;2.83;;;10.70;64.40;;;;;;2595026;53;21062;-76
2022/05/05 07:21:53;;;;;;;7.65;3.45;;;10.80;63.80;;;;;;2347811;57;21619;-76
2022/05/05 07:24:20;;;;;;;17.70;4.00;;;10.90;63.60;;;;;;2346836;57;21113;-76
2022/05/05 07:26:47;;;;;;;8.07;3.33;;;10.90;63.60;;;;;;2347452;57;21606;-76
2022/05/05 07:29:15;;;;;;;15.73;3.85;;;11.00;63.90;;;;;;2347401;57;21620;-77
2022/05/05 07:31:42;;;;;;;6.12;2.72;;;11.00;63.30;;;;;;2595569;53;21106;-76
2022/05/05 07:34:10;;;;;;;5.47;2.53;;;11.10;61.80;;;;;;2347764;57;21038;-76
2022/05/05 07:36:37;;;;;;;13.43;3.75;;;11.20;61.60;;;;;;2347085;57;21045;-76
2022/05/05 07:39:05;;;;;;;18.17;4.00;;;11.20;62.30;;;;;;2347884;57;21108;-77
2022/05/05 07:41:32;;;;;;;3.65;2.70;;;11.30;62.80;;;;;;2346636;57;21018;-76
2022/05/05 07:44:00;;;;;;;11.57;3.45;;;11.30;62.00;;;;;;2347571;57;21120;-76
2022/05/05 07:46:28;;;;;;;8.25;2.75;;;11.40;61.80;;;;;;2346951;57;21053;-76
2022/05/05 07:48:56;;;;;;;6.20;2.83;;;11.50;61.60;;;;;;2594210;53;21126;-74
2022/05/05 07:51:23;;;;;;;10.55;2.58;;;11.50;61.40;;;;;;2345797;57;21037;-75
2022/05/05 07:56:37;;;;;;;8.15;2.78;;;11.60;60.80;;;;;;2593187;53;21046;-75
2022/05/05 07:59:04;;;;;;;6.30;2.42;;;11.70;60.60;;;;;;2346862;57;21049;-74
2022/05/05 08:01:32;;;;;;;8.82;4.62;;;11.70;60.80;;;;;;2347101;57;21519;-75
2022/05/05 08:03:59;;;;;;;10.77;4.75;;;11.70;60.50;;;;;;2346607;57;21115;-75
2022/05/05 08:06:27;;;;;;;8.85;2.78;;;11.80;60.80;;;;;;2345167;57;21057;-74
2022/05/05 08:08:54;;;;;;;9.88;2.47;;;11.80;60.70;;;;;;2345919;57;21026;-75
2022/05/05 08:11:21;;;;;;;10.35;2.42;;;11.80;59.80;;;;;;2345339;57;21045;-75
2022/05/05 08:13:49;;;;;;;4.10;1.92;;;11.90;59.90;;;;;;2346685;57;21045;-74
2022/05/05 08:16:17;;;;;;;6.68;2.08;;;12.00;59.50;;;;;;2346278;57;21120;-74
2022/05/05 08:18:44;;;;;;;6.87;2.50;;;12.00;57.80;;;;;;2346723;57;21578;-74
2022/05/05 08:21:12;;;;;;;4.65;2.55;;;12.10;58.80;;;;;;2346659;57;21030;-75
2022/05/05 08:23:39;;;;;;;7.22;2.00;;;12.10;59.00;;;;;;2346756;57;21609;-75
2022/05/05 08:28:52;;;;;;;7.32;2.70;;;12.30;58.60;;;;;;2346515;57;20994;-75
2022/05/05 08:31:19;;;;;;;5.03;2.37;;;12.30;59.00;;;;;;2594121;53;21030;-75
2022/05/05 08:33:47;;;;;;;7.32;3.10;;;12.40;59.10;;;;;;2346515;57;21555;-75
2022/05/05 08:36:14;;;;;;;5.22;2.53;;;12.40;58.90;;;;;;2593689;52;21057;-75
2022/05/05 08:38:42;;;;;;;6.20;2.50;;;12.40;58.90;;;;;;2346369;57;21674;-76
2022/05/05 08:41:12;;;;;;;5.78;2.12;;;12.50;59.20;;;;;;2346949;57;21050;-74
2022/05/05 08:43:39;;;;;;;3.42;2.33;;;12.50;58.80;;;;;;2345631;57;21036;-75
2022/05/05 08:46:12;;;;;;;4.97;2.20;;;12.60;58.30;;;;;;2346003;57;21034;-75
2022/05/05 08:48:44;;;;;;;4.22;2.00;;;12.70;58.20;;;;;;2594039;53;21057;-75
2022/05/05 08:51:18;;;;;;;3.83;2.50;;;12.80;57.80;;;;;;2346824;57;21070;-75
2022/05/05 08:53:53;;;;;;;6.28;2.58;;;12.80;57.50;;;;;;2346798;57;21058;-75
2022/05/05 08:56:20;;;;;;;6.62;2.50;;;12.90;57.40;;;;;;2346288;57;21106;-75
2022/05/05 08:58:47;;;;;;;5.50;2.47;;;13.10;57.10;;;;;;2346595;57;21608;-75
2022/05/05 09:01:15;;;;;;;9.07;2.60;;;13.10;55.80;;;;;;2345740;57;21184;-75
2022/05/05 09:03:43;;;;;;;6.78;2.30;;;13.10;56.20;;;;;;2346459;57;21053;-75
2022/05/05 09:06:11;;;;;;;6.93;2.55;;;13.10;55.90;;;;;;2346576;57;21046;-76
2022/05/05 09:08:39;;;;;;;9.55;2.92;;;13.10;56.00;;;;;;2346973;57;21041;-74
2022/05/05 09:11:07;;;;;;;5.78;2.80;;;13.10;56.20;;;;;;2346931;57;21148;-74
2022/05/05 09:13:36;;;;;;;5.10;2.30;;;13.20;56.50;;;;;;2346517;57;21136;-75
2022/05/05 09:16:05;;;;;;;8.73;3.37;;;13.20;55.90;;;;;;2346195;57;21605;-76
2022/05/05 09:18:33;;;;;;;5.82;2.10;;;13.30;55.40;;;;;;2345807;57;21568;-75
2022/05/05 09:21:02;;;;;;;5.95;2.70;;;13.30;55.50;;;;;;2346322;57;21516;-75
2022/05/05 09:23:31;;;;;;;5.07;2.50;;;13.40;55.60;;;;;;2346672;57;21058;-75
2022/05/05 09:25:59;;;;;;;7.62;2.25;;;13.50;55.50;;;;;;2345922;57;21101;-75
2022/05/05 09:28:28;;;;;;;6.28;2.33;;;13.50;55.30;;;;;;2346656;57;21041;-75
2022/05/05 09:30:56;;;;;;;6.90;2.40;;;13.50;54.90;;;;;;2346696;57;21045;-75
2022/05/05 09:33:42;;;;;;;4.07;2.03;;;13.60;54.20;;;;;;2346552;57;21141;-75
2022/05/05 09:36:10;;;;;;;7.82;2.25;;;13.70;53.50;;;;;;2592350;53;21038;-75
2022/05/05 09:38:52;;;;;;;5.30;2.15;;;13.70;53.20;;;;;;2346486;57;21125;-75
2022/05/05 09:41:19;;;;;;;5.30;2.60;;;13.80;54.20;;;;;;2347045;57;21173;-75
2022/05/05 09:43:46;;;;;;;6.20;2.70;;;13.80;53.50;;;;;;2346646;57;21759;-76
2022/05/05 09:46:31;;;;;;;5.53;2.25;;;13.80;53.90;;;;;;2346478;57;21069;-75
2022/05/05 09:49:07;;;;;;;7.20;2.70;;;13.90;53.10;;;;;;2346541;57;21049;-75
2022/05/05 09:51:37;;;;;;;7.22;2.78;;;14.00;52.80;;;;;;2346806;57;21110;-75
2022/05/05 09:59:46;;;;;;;3.90;1.92;;;14.30;54.20;;;;;;2346595;57;20985;-74
2022/05/05 10:05:17;;;;;;;5.22;2.10;;;14.40;53.30;;;;;;2298883;57;21045;-76
2022/05/05 10:07:47;;;;;;;5.35;2.70;;;14.50;53.00;;;;;;2346637;57;21583;-76
2022/05/05 10:10:16;;;;;;;5.37;2.62;;;14.60;52.90;;;;;;2345634;57;21145;-75
2022/05/05 10:12:44;;;;;;;6.75;2.37;;;14.70;52.70;;;;;;2593781;53;21540;-75
2022/05/05 10:15:12;;;;;;;6.35;2.40;;;14.70;53.10;;;;;;2346664;57;21559;-75
2022/05/05 10:17:42;;;;;;;6.00;2.40;;;14.90;53.20;;;;;;2346450;57;21041;-75
2022/05/05 10:20:12;;;;;;;7.47;2.62;;;15.00;52.80;;;;;;2346480;57;21125;-76
2022/05/05 10:22:47;;;;;;;7.72;2.55;;;15.10;53.10;;;;;;2346898;57;21137;-75
2022/05/05 10:25:20;;;;;;;5.57;2.22;;;15.20;52.30;;;;;;2346157;57;21100;-75
2022/05/05 10:27:48;;;;;;;5.62;2.40;;;15.30;51.40;;;;;;2345858;57;21046;-75
2022/05/05 10:30:17;;;;;;;13.52;2.62;;;15.30;50.30;;;;;;2593309;53;21057;-75
2022/05/05 10:32:44;;;;;;;5.12;1.77;;;15.40;51.00;;;;;;2346633;57;21588;-75
2022/05/05 10:35:23;;;;;;;6.12;2.30;;;15.50;50.70;;;;;;2345866;57;21583;-75
2022/05/05 10:37:50;;;;;;;11.10;2.67;;;15.60;49.90;;;;;;2344891;57;21054;-75
2022/05/05 10:40:18;;;;;;;4.65;1.98;;;15.60;49.90;;;;;;2357234;52;70870;-80
2022/05/05 10:42:46;;;;;;;14.35;2.05;;;15.70;50.00;;;;;;2359097;57;21628;-80
2022/05/05 10:45:17;;;;;;;6.03;2.10;;;15.80;50.60;;;;;;2358301;57;22137;-80
2022/05/05 10:48:44;;;;;;;5.00;2.35;;;15.90;50.30;;;;;;2359398;57;21045;-80
2022/05/05 10:51:12;;;;;;;12.40;2.83;;;15.90;50.70;;;;;;2353858;57;21041;-78
2022/05/05 10:53:40;;;;;;;6.90;2.28;;;16.00;50.90;;;;;;2613257;53;21069;-78
2022/05/05 10:56:28;;;;;;;9.57;3.50;;;16.00;50.90;;;;;;2362298;57;21105;-78
2022/05/05 10:59:06;;;;;;;8.60;3.08;;;16.10;50.90;;;;;;2362397;57;21101;-79
2022/05/05 11:01:59;;;;;;;5.18;2.78;;;16.20;50.90;;;;;;2362431;57;21049;-77
2022/05/05 11:04:34;;;;;;;6.43;2.25;;;16.30;50.60;;;;;;2363332;57;21089;-77
2022/05/05 11:07:39;;;;;;;6.57;2.12;;;16.40;49.70;;;;;;2613596;53;21537;-77
2022/05/05 11:10:39;;;;;;;4.10;1.65;;;16.50;48.30;;;;;;2363320;56;21045;-79
2022/05/05 11:13:06;;;;;;;5.60;1.80;;;16.60;47.70;;;;;;2362771;57;21545;-76
2022/05/05 11:21:33;;;;;;;69.72;32.67;;;16.90;48.10;;;;;;2362980;57;21016;-77
2022/05/05 11:24:01;;;;;;;243.68;128.93;;;17.00;48.00;;;;;;2614668;53;21181;-76
2022/05/05 11:26:29;;;;;;;86.37;42.35;;;17.10;48.60;;;;;;2363501;57;21558;-77
2022/05/05 11:28:58;;;;;;;198.25;97.03;;;17.10;48.30;;;;;;2614400;53;21018;-77
2022/05/05 11:31:28;;;;;;;22.05;11.12;;;17.20;47.90;;;;;;2614002;53;21054;-79
2022/05/05 11:33:57;;;;;;;38.80;20.15;;;17.20;46.70;;;;;;2614005;53;21510;-77
2022/05/05 11:36:28;;;;;;;9.95;4.93;;;17.20;46.80;;;;;;2362962;57;21018;-78
2022/05/05 11:38:56;;;;;;;5.87;3.25;;;17.30;47.10;;;;;;2363445;57;21589;-80
2022/05/05 11:41:24;;;;;;;3.72;1.92;;;17.40;47.30;;;;;;2374785;56;21152;-78
2022/05/05 11:46:38;;;;;;;6.32;2.90;;;17.70;47.00;;;;;;2395576;56;20994;-78
2022/05/05 11:49:08;;;;;;;507.60;277.00;;;17.80;47.00;;;;;;2654311;52;21065;-78
2022/05/05 11:51:36;;;;;;;74.65;35.55;;;18.00;46.70;;;;;;2396803;56;21137;-78
2022/05/05 11:54:07;;;;;;;34.35;16.92;;;18.00;46.30;;;;;;2397477;56;21125;-78
2022/05/05 11:56:37;;;;;;;14.63;6.07;;;18.10;46.30;;;;;;2396546;56;21050;-79
2022/05/05 12:02:05;;;;;;;3.78;2.55;;;18.30;45.90;;;;;;2355764;57;22066;-75
2022/05/05 12:04:34;;;;;;;6.15;2.83;;;18.40;45.60;;;;;;2347126;57;21105;-75
2022/05/05 12:07:03;;;;;;;5.62;2.70;;;18.50;45.40;;;;;;2357737;56;21443;-75
2022/05/05 12:09:31;;;;;;;3.65;2.10;;;18.70;46.00;;;;;;2374584;56;21100;-76
2022/05/05 12:12:07;;;;;;;7.10;1.75;;;18.80;45.60;;;;;;2374969;56;21035;-75
2022/05/05 12:14:42;;;;;;;6.72;2.12;;;18.90;44.90;;;;;;2375033;56;21047;-74
2022/05/05 12:17:12;;;;;;;5.28;2.00;;;18.90;44.90;;;;;;2374323;56;21043;-77
2022/05/05 12:19:48;;;;;;;4.43;2.00;;;18.90;44.40;;;;;;2374830;56;21518;-77
2022/05/05 12:22:21;;;;;;;7.37;2.40;;;18.90;43.90;;;;;;2373367;56;21986;-76
2022/05/05 12:24:48;;;;;;;7.57;2.42;;;18.90;43.50;;;;;;2375178;56;21130;-77
2022/05/05 12:27:17;;;;;;;3.00;1.65;;;18.90;43.50;;;;;;2374337;56;21098;-75
2022/05/05 12:29:46;;;;;;;4.97;2.17;;;18.90;43.50;;;;;;2374910;56;21051;-76
2022/05/05 12:32:15;;;;;;;10.57;2.20;;;19.00;43.50;;;;;;2375427;56;21430;-75
2022/05/05 12:34:44;;;;;;;7.80;2.17;;;19.00;43.50;;;;;;2375616;56;21106;-76
2022/05/05 12:37:17;;;;;;;3.58;2.05;;;19.00;43.70;;;;;;2374578;56;21549;-75
2022/05/05 12:39:57;;;;;;;4.57;2.30;;;19.00;43.90;;;;;;2374492;56;21083;-76
2022/05/05 12:42:25;;;;;;;5.45;1.90;;;19.10;43.60;;;;;;2375143;56;21570;-76
2022/05/05 12:44:52;;;;;;;5.65;2.25;;;19.10;44.60;;;;;;2375275;56;21102;-76
2022/05/05 12:47:26;;;;;;;10.05;2.47;;;19.20;43.60;;;;;;2374907;56;21129;-76
2022/05/05 12:49:54;;;;;;;7.30;1.87;;;19.30;43.90;;;;;;2375441;56;21050;-77
2022/05/05 13:00:55;;;;;;;4.22;2.10;;;19.60;42.60;;;;;;2374627;56;21644;-76
2022/05/05 13:03:23;;;;;;;3.05;1.73;;;19.50;42.80;;;;;;2628988;52;21079;-76
2022/05/05 13:05:51;;;;;;;8.32;2.00;;;19.40;43.10;;;;;;2374877;56;21114;-76
2022/05/05 13:08:18;;;;;;;7.65;1.92;;;19.50;43.10;;;;;;2375569;56;21593;-76
2022/05/05 13:10:46;;;;;;;3.62;1.40;;;19.60;43.90;;;;;;2374133;56;21519;-77
2022/05/05 13:13:14;;;;;;;5.18;1.70;;;19.70;43.80;;;;;;2374091;56;21094;-76
2022/05/05 13:15:42;;;;;;;7.87;2.60;;;19.70;44.70;;;;;;2374170;56;21050;-74
2022/05/05 13:18:09;;;;;;;10.77;3.25;;;19.80;44.00;;;;;;2374080;56;21039;-76
2022/05/05 13:20:37;;;;;;;4.32;2.03;;;19.80;43.10;;;;;;2374225;56;21126;-76
2022/05/05 13:23:04;;;;;;;5.90;2.47;;;19.90;43.30;;;;;;2374445;56;21075;-76
2022/05/05 13:28:08;;;;;;;13.10;2.72;;;20.00;42.60;;;;;;2379518;56;22109;-75
2022/05/05 13:30:35;;;;;;;10.35;2.72;;;20.00;42.30;;;;;;2375266;56;21042;-76
2022/05/05 13:33:03;;;;;;;4.62;2.80;;;20.00;42.40;;;;;;2375460;56;22197;-76
2022/05/05 13:35:30;;;;;;;20.08;3.92;;;20.10;42.30;;;;;;2375099;56;21042;-76
2022/05/05 13:37:58;;;;;;;4.35;2.25;;;20.10;42.90;;;;;;2375095;56;21231;-74
2022/05/05 13:40:26;;;;;;;8.10;2.78;;;20.10;42.80;;;;;;2375423;56;21180;-75
2022/05/05 13:42:53;;;;;;;5.53;2.72;;;20.10;42.40;;;;;;2374765;56;21043;-76
2022/05/05 13:45:20;;;;;;;14.65;3.28;;;20.10;42.60;;;;;;2627520;52;21051;-77
2022/05/05 13:47:48;;;;;;;10.32;3.55;;;20.10;42.60;;;;;;2375213;56;21133;-74
2022/05/05 13:50:15;;;;;;;4.47;2.67;;;20.10;43.10;;;;;;2375125;56;21536;-77
2022/05/05 13:52:44;;;;;;;6.07;3.22;;;20.10;43.20;;;;;;2375183;56;21062;-75
2022/05/05 13:55:11;;;;;;;8.38;3.60;;;20.00;43.70;;;;;;2375264;56;21047;-76
2022/05/05 13:57:40;;;;;;;14.95;3.92;;;20.00;44.10;;;;;;2628680;52;21652;-76
2022/05/05 14:00:10;;;;;;;64.28;7.68;;;20.00;44.10;;;;;;2374595;56;21612;-76
2022/05/05 14:02:37;;;;;;;16.55;4.43;;;20.00;43.70;;;;;;2374345;56;21114;-75